sensor_id;sensor_type;location;lat;lon;timestamp;pressure;altitude;pressure_sealevel;temperature;humidity
51603;BME280;37954;51.980;5.850;2022-10-30T00:03:11;101351.44;;;15.27;80.39
51603;BME280;37954;51.980;5.850;2022-10-30T00:07:23;101357.22;;;15.19;80.39
51603;BME280;37954;51.980;5.850;2022-10-30T00:11:34;101364.41;;;15.13;80.50
51603;BME280;37954;51.980;5.850;2022-10-30T00:15:51;101356.41;;;15.07;80.72
51603;BME280;37954;51.980;5.850;2022-10-30T00:20:03;101364.66;;;15.00;80.80
51603;BME280;37954;51.980;5.850;2022-10-30T00:24:15;101358.78;;;14.91;80.90
51603;BME280;37954;51.980;5.850;2022-10-30T00:28:27;101351.72;;;14.90;81.08
51603;BME280;37954;51.980;5.850;2022-10-30T00:32:38;101363.59;;;14.89;81.27
51603;BME280;37954;51.980;5.850;2022-10-30T00:36:50;101358.34;;;14.83;81.54
51603;BME280;37954;51.980;5.850;2022-10-30T00:41:01;101360.22;;;14.82;81.47
51603;BME280;37954;51.980;5.850;2022-10-30T00:45:15;101354.44;;;14.79;81.64
51603;BME280;37954;51.980;5.850;2022-10-30T00:49:27;101339.41;;;14.71;81.48
51603;BME280;37954;51.980;5.850;2022-10-30T00:53:39;101354.81;;;14.71;81.51
51603;BME280;37954;51.980;5.850;2022-10-30T00:57:52;101348.44;;;14.65;81.36
51603;BME280;37954;51.980;5.850;2022-10-30T01:02:05;101350.56;;;14.63;81.57
51603;BME280;37954;51.980;5.850;2022-10-30T01:06:17;101339.03;;;14.56;81.74
51603;BME280;37954;51.980;5.850;2022-10-30T01:10:29;101343.28;;;14.52;81.84
51603;BME280;37954;51.980;5.850;2022-10-30T01:14:55;101351.25;;;14.47;81.91
51603;BME280;37954;51.980;5.850;2022-10-30T01:19:25;101354.44;;;14.44;82.01
51603;BME280;37954;51.980;5.850;2022-10-30T01:24:01;101355.91;;;14.40;82.03
51603;BME280;37954;51.980;5.850;2022-10-30T01:37:57;101366.34;;;14.24;82.25
51603;BME280;37954;51.980;5.850;2022-10-30T01:51:54;101362.00;;;14.12;82.58
51603;BME280;37954;51.980;5.850;2022-10-30T01:56:20;101367.84;;;14.09;82.44
51603;BME280;37954;51.980;5.850;2022-10-30T02:00:44;101367.25;;;14.07;82.61
51603;BME280;37954;51.980;5.850;2022-10-30T02:04:58;101351.75;;;14.02;82.78
51603;BME280;37954;51.980;5.850;2022-10-30T02:09:10;101353.88;;;14.00;82.79
51603;BME280;37954;51.980;5.850;2022-10-30T02:13:29;101351.38;;;13.99;82.77
51603;BME280;37954;51.980;5.850;2022-10-30T02:17:42;101356.19;;;13.97;83.12
51603;BME280;37954;51.980;5.850;2022-10-30T02:21:55;101355.59;;;13.94;83.04
51603;BME280;37954;51.980;5.850;2022-10-30T02:26:07;101362.28;;;13.92;83.38
51603;BME280;37954;51.980;5.850;2022-10-30T02:30:19;101362.13;;;13.87;83.12
51603;BME280;37954;51.980;5.850;2022-10-30T02:34:30;101368.59;;;13.86;83.06
51603;BME280;37954;51.980;5.850;2022-10-30T02:38:43;101366.59;;;13.81;83.34
51603;BME280;37954;51.980;5.850;2022-10-30T02:42:54;101372.38;;;13.85;83.35
51603;BME280;37954;51.980;5.850;2022-10-30T02:47:06;101361.56;;;13.85;83.73
51603;BME280;37954;51.980;5.850;2022-10-30T02:51:17;101361.19;;;13.81;83.41
51603;BME280;37954;51.980;5.850;2022-10-30T02:55:29;101371.78;;;13.83;83.82
51603;BME280;37954;51.980;5.850;2022-10-30T02:59:41;101372.44;;;13.78;83.82
51603;BME280;37954;51.980;5.850;2022-10-30T03:03:53;101375.38;;;13.77;83.76
51603;BME280;37954;51.980;5.850;2022-10-30T03:08:06;101376.88;;;13.73;83.61
51603;BME280;37954;51.980;5.850;2022-10-30T03:12:18;101391.88;;;13.69;83.82
51603;BME280;37954;51.980;5.850;2022-10-30T03:16:29;101388.34;;;13.68;83.76
51603;BME280;37954;51.980;5.850;2022-10-30T03:20:41;101381.34;;;13.67;84.13
51603;BME280;37954;51.980;5.850;2022-10-30T03:24:52;101380.97;;;13.64;83.91
51603;BME280;37954;51.980;5.850;2022-10-30T03:29:04;101385.38;;;13.58;83.83
51603;BME280;37954;51.980;5.850;2022-10-30T03:33:16;101392.44;;;13.59;83.86
51603;BME280;37954;51.980;5.850;2022-10-30T03:37:28;101386.28;;;13.52;83.97
51603;BME280;37954;51.980;5.850;2022-10-30T03:41:40;101378.66;;;13.49;83.95
51603;BME280;37954;51.980;5.850;2022-10-30T03:45:55;101388.16;;;13.51;84.06
51603;BME280;37954;51.980;5.850;2022-10-30T03:50:07;101384.50;;;13.46;84.10
51603;BME280;37954;51.980;5.850;2022-10-30T03:54:18;101383.69;;;13.45;84.14
51603;BME280;37954;51.980;5.850;2022-10-30T03:58:30;101380.81;;;13.40;84.43
51603;BME280;37954;51.980;5.850;2022-10-30T04:02:48;101386.59;;;13.44;84.56
51603;BME280;37954;51.980;5.850;2022-10-30T04:07:00;101383.31;;;13.42;84.53
51603;BME280;37954;51.980;5.850;2022-10-30T04:11:12;101385.19;;;13.41;84.33
51603;BME280;37954;51.980;5.850;2022-10-30T04:15:23;101394.25;;;13.47;84.91
51603;BME280;37954;51.980;5.850;2022-10-30T04:19:36;101382.03;;;13.44;84.64
51603;BME280;37954;51.980;5.850;2022-10-30T04:23:48;101394.03;;;13.48;84.94
51603;BME280;37954;51.980;5.850;2022-10-30T04:28:01;101389.75;;;13.41;84.91
51603;BME280;37954;51.980;5.850;2022-10-30T04:32:13;101400.31;;;13.42;84.86
51603;BME280;37954;51.980;5.850;2022-10-30T04:36:25;101407.59;;;13.42;84.90
51603;BME280;37954;51.980;5.850;2022-10-30T04:40:43;101405.72;;;13.42;84.83
51603;BME280;37954;51.980;5.850;2022-10-30T04:44:57;101394.75;;;13.37;84.76
51603;BME280;37954;51.980;5.850;2022-10-30T04:49:08;101406.59;;;13.36;84.72
51603;BME280;37954;51.980;5.850;2022-10-30T04:53:20;101388.25;;;13.27;84.59
51603;BME280;37954;51.980;5.850;2022-10-30T04:57:36;101380.44;;;13.18;84.73
51603;BME280;37954;51.980;5.850;2022-10-30T05:01:48;101378.22;;;13.15;84.66
51603;BME280;37954;51.980;5.850;2022-10-30T05:06:21;101366.88;;;13.07;85.06
51603;BME280;37954;51.980;5.850;2022-10-30T05:10:33;101378.69;;;13.06;84.70
51603;BME280;37954;51.980;5.850;2022-10-30T05:14:45;101372.09;;;13.02;85.02
51603;BME280;37954;51.980;5.850;2022-10-30T05:18:56;101375.84;;;13.01;85.19
51603;BME280;37954;51.980;5.850;2022-10-30T05:23:08;101364.22;;;13.00;85.08
51603;BME280;37954;51.980;5.850;2022-10-30T05:27:19;101367.19;;;12.99;85.10
51603;BME280;37954;51.980;5.850;2022-10-30T05:31:31;101384.84;;;12.95;85.24
51603;BME280;37954;51.980;5.850;2022-10-30T05:35:58;101388.97;;;12.97;85.52
51603;BME280;37954;51.980;5.850;2022-10-30T05:40:11;101381.31;;;12.94;85.44
51603;BME280;37954;51.980;5.850;2022-10-30T05:44:23;101383.63;;;12.90;85.44
51603;BME280;37954;51.980;5.850;2022-10-30T05:48:51;101381.75;;;12.91;85.15
51603;BME280;37954;51.980;5.850;2022-10-30T05:53:04;101382.81;;;12.90;85.72
51603;BME280;37954;51.980;5.850;2022-10-30T05:57:16;101381.38;;;12.87;85.60
51603;BME280;37954;51.980;5.850;2022-10-30T06:01:28;101400.63;;;12.91;85.95
51603;BME280;37954;51.980;5.850;2022-10-30T06:05:44;101382.25;;;12.81;85.88
51603;BME280;37954;51.980;5.850;2022-10-30T06:09:57;101389.56;;;12.81;86.00
51603;BME280;37954;51.980;5.850;2022-10-30T06:14:22;101403.81;;;12.81;85.68
51603;BME280;37954;51.980;5.850;2022-10-30T06:18:35;101397.47;;;12.76;85.87
51603;BME280;37954;51.980;5.850;2022-10-30T06:23:03;101397.03;;;12.79;85.80
51603;BME280;37954;51.980;5.850;2022-10-30T06:27:35;101385.69;;;12.70;85.94
51603;BME280;37954;51.980;5.850;2022-10-30T06:31:46;101390.03;;;12.71;85.88
51603;BME280;37954;51.980;5.850;2022-10-30T06:35:58;101394.22;;;12.67;86.15
51603;BME280;37954;51.980;5.850;2022-10-30T06:40:10;101395.88;;;12.68;86.28
51603;BME280;37954;51.980;5.850;2022-10-30T06:44:40;101381.56;;;12.68;86.21
51603;BME280;37954;51.980;5.850;2022-10-30T06:48:52;101390.81;;;12.78;86.43
51603;BME280;37954;51.980;5.850;2022-10-30T06:53:04;101384.16;;;12.81;86.44
51603;BME280;37954;51.980;5.850;2022-10-30T06:57:17;101372.91;;;12.84;86.38
51603;BME280;37954;51.980;5.850;2022-10-30T07:01:47;101376.53;;;12.96;86.30
51603;BME280;37954;51.980;5.850;2022-10-30T07:06:01;101376.00;;;13.06;86.56
51603;BME280;37954;51.980;5.850;2022-10-30T07:10:12;101376.75;;;13.13;86.69
51603;BME280;37954;51.980;5.850;2022-10-30T07:14:43;101389.53;;;13.24;86.65
51603;BME280;37954;51.980;5.850;2022-10-30T07:19:14;101376.56;;;13.33;86.60
51603;BME280;37954;51.980;5.850;2022-10-30T07:23:26;101373.34;;;13.72;86.74
51603;BME280;37954;51.980;5.850;2022-10-30T07:27:47;101374.06;;;14.09;86.76
51603;BME280;37954;51.980;5.850;2022-10-30T07:32:18;101369.19;;;14.29;86.50
51603;BME280;37954;51.980;5.850;2022-10-30T07:36:35;101390.22;;;14.39;85.85
51603;BME280;37954;51.980;5.850;2022-10-30T07:40:54;101389.34;;;14.45;85.49
51603;BME280;37954;51.980;5.850;2022-10-30T07:45:26;101395.94;;;14.61;85.61
51603;BME280;37954;51.980;5.850;2022-10-30T07:49:56;101391.94;;;14.75;85.46
51603;BME280;37954;51.980;5.850;2022-10-30T07:54:08;101389.94;;;14.94;85.37
51603;BME280;37954;51.980;5.850;2022-10-30T07:58:20;101377.81;;;15.08;85.26
51603;BME280;37954;51.980;5.850;2022-10-30T08:02:55;101374.63;;;15.23;85.14
51603;BME280;37954;51.980;5.850;2022-10-30T08:07:29;101381.88;;;15.46;84.96
51603;BME280;37954;51.980;5.850;2022-10-30T08:11:41;101383.50;;;16.49;85.81
51603;BME280;37954;51.980;5.850;2022-10-30T08:15:53;101385.25;;;17.70;85.08
51603;BME280;37954;51.980;5.850;2022-10-30T08:20:05;101369.47;;;18.58;82.82
51603;BME280;37954;51.980;5.850;2022-10-30T08:24:17;101379.47;;;19.27;80.63
51603;BME280;37954;51.980;5.850;2022-10-30T08:28:31;101383.78;;;19.80;77.10
51603;BME280;37954;51.980;5.850;2022-10-30T08:32:45;101387.44;;;20.57;75.94
51603;BME280;37954;51.980;5.850;2022-10-30T08:37:35;101384.03;;;21.26;73.13
51603;BME280;37954;51.980;5.850;2022-10-30T08:41:47;101376.63;;;21.85;70.27
51603;BME280;37954;51.980;5.850;2022-10-30T08:45:59;101366.81;;;22.57;68.68
51603;BME280;37954;51.980;5.850;2022-10-30T08:50:11;101361.53;;;22.95;65.15
51603;BME280;37954;51.980;5.850;2022-10-30T08:54:23;101352.66;;;23.03;62.28
51603;BME280;37954;51.980;5.850;2022-10-30T08:58:34;101360.28;;;23.06;61.81
51603;BME280;37954;51.980;5.850;2022-10-30T09:02:46;101376.41;;;23.13;61.00
51603;BME280;37954;51.980;5.850;2022-10-30T09:07:20;101373.81;;;23.21;59.72
51603;BME280;37954;51.980;5.850;2022-10-30T09:12:10;101375.44;;;23.46;58.82
51603;BME280;37954;51.980;5.850;2022-10-30T09:16:26;101372.53;;;23.62;58.51
51603;BME280;37954;51.980;5.850;2022-10-30T09:20:37;101366.81;;;24.14;56.58
51603;BME280;37954;51.980;5.850;2022-10-30T09:24:49;101364.13;;;24.60;55.20
51603;BME280;37954;51.980;5.850;2022-10-30T09:29:26;101374.78;;;24.94;54.74
51603;BME280;37954;51.980;5.850;2022-10-30T09:33:45;101371.75;;;25.37;54.39
51603;BME280;37954;51.980;5.850;2022-10-30T09:38:16;101366.22;;;25.78;53.59
51603;BME280;37954;51.980;5.850;2022-10-30T09:42:41;101370.84;;;25.91;51.57
51603;BME280;37954;51.980;5.850;2022-10-30T10:00:10;101363.13;;;26.38;48.51
51603;BME280;37954;51.980;5.850;2022-10-30T10:04:42;101369.09;;;26.18;49.15
51603;BME280;37954;51.980;5.850;2022-10-30T10:09:17;101377.91;;;25.84;48.77
51603;BME280;37954;51.980;5.850;2022-10-30T10:14:08;101376.75;;;25.35;49.13
51603;BME280;37954;51.980;5.850;2022-10-30T10:18:32;101391.00;;;25.37;49.83
51603;BME280;37954;51.980;5.850;2022-10-30T10:22:48;101403.94;;;25.23;49.99
51603;BME280;37954;51.980;5.850;2022-10-30T10:31:52;101396.09;;;25.03;50.55
51603;BME280;37954;51.980;5.850;2022-10-30T10:36:25;101390.06;;;24.54;50.68
51603;BME280;37954;51.980;5.850;2022-10-30T10:41:23;101389.00;;;24.18;51.67
51603;BME280;37954;51.980;5.850;2022-10-30T10:45:57;101389.66;;;24.10;52.06
51603;BME280;37954;51.980;5.850;2022-10-30T10:50:30;101387.44;;;24.31;52.30
51603;BME280;37954;51.980;5.850;2022-10-30T10:54:51;101382.41;;;24.38;52.08
51603;BME280;37954;51.980;5.850;2022-10-30T10:59:05;101372.00;;;24.35;52.33
51603;BME280;37954;51.980;5.850;2022-10-30T11:03:48;101379.59;;;24.24;52.60
51603;BME280;37954;51.980;5.850;2022-10-30T11:08:25;101363.16;;;24.38;52.29
51603;BME280;37954;51.980;5.850;2022-10-30T11:12:38;101357.34;;;24.72;52.41
51603;BME280;37954;51.980;5.850;2022-10-30T11:21:09;101364.00;;;24.98;51.64
51603;BME280;37954;51.980;5.850;2022-10-30T11:25:24;101361.25;;;24.98;51.62
51603;BME280;37954;51.980;5.850;2022-10-30T11:29:48;101355.25;;;24.96;51.55
51603;BME280;37954;51.980;5.850;2022-10-30T11:34:23;101355.13;;;24.87;51.92
51603;BME280;37954;51.980;5.850;2022-10-30T11:38:35;101348.94;;;24.95;52.08
51603;BME280;37954;51.980;5.850;2022-10-30T11:42:57;101349.25;;;25.08;51.78
51603;BME280;37954;51.980;5.850;2022-10-30T11:47:11;101337.00;;;25.14;51.63
51603;BME280;37954;51.980;5.850;2022-10-30T11:51:36;101335.16;;;25.37;50.51
51603;BME280;37954;51.980;5.850;2022-10-30T11:55:49;101334.72;;;25.57;50.56
51603;BME280;37954;51.980;5.850;2022-10-30T12:00:26;101330.03;;;25.57;50.21
51603;BME280;37954;51.980;5.850;2022-10-30T12:04:38;101332.00;;;25.43;50.02
51603;BME280;37954;51.980;5.850;2022-10-30T12:13:21;101320.59;;;24.81;51.40
51603;BME280;37954;51.980;5.850;2022-10-30T12:17:33;101320.06;;;24.52;51.93
51603;BME280;37954;51.980;5.850;2022-10-30T12:21:50;101322.28;;;24.36;52.28
51603;BME280;37954;51.980;5.850;2022-10-30T12:26:10;101328.72;;;24.26;52.60
51603;BME280;37954;51.980;5.850;2022-10-30T12:30:23;101323.63;;;24.20;52.92
51603;BME280;37954;51.980;5.850;2022-10-30T12:34:56;101325.31;;;24.16;52.78
51603;BME280;37954;51.980;5.850;2022-10-30T12:39:16;101319.09;;;24.10;52.98
51603;BME280;37954;51.980;5.850;2022-10-30T12:43:31;101313.72;;;24.05;52.98
51603;BME280;37954;51.980;5.850;2022-10-30T12:47:51;101309.47;;;23.94;53.49
51603;BME280;37954;51.980;5.850;2022-10-30T12:52:08;101305.88;;;23.80;53.53
51603;BME280;37954;51.980;5.850;2022-10-30T12:56:31;101300.84;;;23.68;53.27
51603;BME280;37954;51.980;5.850;2022-10-30T13:00:53;101301.69;;;23.45;53.72
51603;BME280;37954;51.980;5.850;2022-10-30T13:05:34;101286.84;;;23.27;55.03
51603;BME280;37954;51.980;5.850;2022-10-30T13:10:03;101282.09;;;23.14;54.99
51603;BME280;37954;51.980;5.850;2022-10-30T13:14:20;101288.41;;;23.14;55.03
51603;BME280;37954;51.980;5.850;2022-10-30T13:18:32;101280.69;;;23.16;55.27
51603;BME280;37954;51.980;5.850;2022-10-30T13:23:00;101291.13;;;23.14;55.84
51603;BME280;37954;51.980;5.850;2022-10-30T13:27:24;101286.66;;;23.00;57.30
51603;BME280;37954;51.980;5.850;2022-10-30T13:36:09;101271.88;;;23.19;56.35
51603;BME280;37954;51.980;5.850;2022-10-30T13:45:22;101266.16;;;23.16;56.53
51603;BME280;37954;51.980;5.850;2022-10-30T13:49:49;101249.47;;;22.94;56.65
51603;BME280;37954;51.980;5.850;2022-10-30T13:54:19;101255.53;;;22.90;56.46
51603;BME280;37954;51.980;5.850;2022-10-30T13:58:42;101255.59;;;22.85;56.81
51603;BME280;37954;51.980;5.850;2022-10-30T14:08:06;101273.16;;;22.55;57.22
51603;BME280;37954;51.980;5.850;2022-10-30T14:17:15;101278.16;;;22.19;58.31
51603;BME280;37954;51.980;5.850;2022-10-30T14:21:36;101284.09;;;21.98;58.87
51603;BME280;37954;51.980;5.850;2022-10-30T14:30:19;101286.28;;;21.57;60.00
51603;BME280;37954;51.980;5.850;2022-10-30T14:34:45;101282.22;;;21.49;60.86
51603;BME280;37954;51.980;5.850;2022-10-30T14:43:43;101283.91;;;21.45;61.62
51603;BME280;37954;51.980;5.850;2022-10-30T14:48:06;101280.31;;;21.49;61.75
51603;BME280;37954;51.980;5.850;2022-10-30T14:56:49;101289.41;;;21.40;62.53
51603;BME280;37954;51.980;5.850;2022-10-30T15:01:27;101303.59;;;21.47;62.66
51603;BME280;37954;51.980;5.850;2022-10-30T15:05:54;101305.53;;;21.41;62.86
51603;BME280;37954;51.980;5.850;2022-10-30T15:10:20;101298.16;;;21.37;63.37
51603;BME280;37954;51.980;5.850;2022-10-30T15:14:40;101292.72;;;21.32;63.42
51603;BME280;37954;51.980;5.850;2022-10-30T15:19:11;101292.19;;;21.30;63.56
51603;BME280;37954;51.980;5.850;2022-10-30T15:23:27;101284.84;;;21.25;63.74
51603;BME280;37954;51.980;5.850;2022-10-30T15:27:44;101284.06;;;21.09;63.92
51603;BME280;37954;51.980;5.850;2022-10-30T15:40:28;101299.22;;;20.71;65.04
51603;BME280;37954;51.980;5.850;2022-10-30T15:44:43;101308.25;;;20.57;65.58
51603;BME280;37954;51.980;5.850;2022-10-30T15:48:56;101318.66;;;20.39;66.01
51603;BME280;37954;51.980;5.850;2022-10-30T15:53:20;101324.06;;;20.29;66.51
51603;BME280;37954;51.980;5.850;2022-10-30T15:57:46;101327.38;;;20.16;66.89
51603;BME280;37954;51.980;5.850;2022-10-30T16:02:22;101332.53;;;20.02;67.23
51603;BME280;37954;51.980;5.850;2022-10-30T16:06:34;101356.53;;;19.95;67.65
51603;BME280;37954;51.980;5.850;2022-10-30T16:10:47;101371.50;;;19.83;67.88
51603;BME280;37954;51.980;5.850;2022-10-30T16:15:04;101367.63;;;19.63;68.29
51603;BME280;37954;51.980;5.850;2022-10-30T16:19:26;101372.50;;;19.51;68.72
51603;BME280;37954;51.980;5.850;2022-10-30T16:23:48;101368.63;;;19.42;69.03
51603;BME280;37954;51.980;5.850;2022-10-30T16:28:00;101388.78;;;19.36;69.53
51603;BME280;37954;51.980;5.850;2022-10-30T16:32:19;101387.34;;;19.23;69.73
51603;BME280;37954;51.980;5.850;2022-10-30T16:36:32;101388.41;;;19.17;69.89
51603;BME280;37954;51.980;5.850;2022-10-30T16:40:44;101394.91;;;19.11;70.34
51603;BME280;37954;51.980;5.850;2022-10-30T16:49:31;101411.91;;;18.86;71.34
51603;BME280;37954;51.980;5.850;2022-10-30T16:53:48;101418.16;;;18.82;71.68
51603;BME280;37954;51.980;5.850;2022-10-30T16:58:01;101407.41;;;18.65;73.01
51603;BME280;37954;51.980;5.850;2022-10-30T17:02:18;101431.91;;;18.65;73.07
51603;BME280;37954;51.980;5.850;2022-10-30T17:06:38;101436.94;;;18.56;73.40
51603;BME280;37954;51.980;5.850;2022-10-30T17:10:58;101444.84;;;18.53;73.79
51603;BME280;37954;51.980;5.850;2022-10-30T17:15:11;101442.00;;;18.42;74.51
51603;BME280;37954;51.980;5.850;2022-10-30T17:23:48;101456.09;;;18.34;74.88
51603;BME280;37954;51.980;5.850;2022-10-30T17:28:01;101451.41;;;18.30;75.73
51603;BME280;37954;51.980;5.850;2022-10-30T17:32:18;101463.19;;;18.35;75.40
51603;BME280;37954;51.980;5.850;2022-10-30T17:36:30;101449.47;;;18.25;75.69
51603;BME280;37954;51.980;5.850;2022-10-30T17:40:42;101452.19;;;18.25;75.72
51603;BME280;37954;51.980;5.850;2022-10-30T17:44:53;101469.25;;;18.21;75.86
51603;BME280;37954;51.980;5.850;2022-10-30T17:49:18;101464.06;;;18.19;75.81
51603;BME280;37954;51.980;5.850;2022-10-30T17:53:31;101462.50;;;18.23;75.76
51603;BME280;37954;51.980;5.850;2022-10-30T17:57:42;101443.41;;;18.18;75.52
51603;BME280;37954;51.980;5.850;2022-10-30T18:01:55;101457.56;;;18.20;75.48
51603;BME280;37954;51.980;5.850;2022-10-30T18:06:13;101469.31;;;18.26;75.46
51603;BME280;37954;51.980;5.850;2022-10-30T18:10:25;101484.72;;;18.15;75.32
51603;BME280;37954;51.980;5.850;2022-10-30T18:14:37;101505.84;;;18.08;75.46
51603;BME280;37954;51.980;5.850;2022-10-30T18:18:49;101515.28;;;18.00;75.44
51603;BME280;37954;51.980;5.850;2022-10-30T18:23:02;101534.00;;;17.97;75.63
51603;BME280;37954;51.980;5.850;2022-10-30T18:27:14;101527.00;;;17.84;75.82
51603;BME280;37954;51.980;5.850;2022-10-30T18:31:26;101533.72;;;17.77;75.80
51603;BME280;37954;51.980;5.850;2022-10-30T18:35:38;101530.44;;;17.74;75.89
51603;BME280;37954;51.980;5.850;2022-10-30T18:39:50;101555.47;;;17.77;76.04
51603;BME280;37954;51.980;5.850;2022-10-30T18:44:02;101542.88;;;17.70;76.27
51603;BME280;37954;51.980;5.850;2022-10-30T18:48:14;101548.81;;;17.67;76.32
51603;BME280;37954;51.980;5.850;2022-10-30T18:52:25;101557.47;;;17.64;76.45
51603;BME280;37954;51.980;5.850;2022-10-30T18:56:37;101565.75;;;17.58;76.63
51603;BME280;37954;51.980;5.850;2022-10-30T19:00:48;101565.94;;;17.51;76.63
51603;BME280;37954;51.980;5.850;2022-10-30T19:05:32;101568.59;;;17.46;76.91
51603;BME280;37954;51.980;5.850;2022-10-30T19:09:44;101568.00;;;17.44;76.92
51603;BME280;37954;51.980;5.850;2022-10-30T19:13:56;101567.44;;;17.42;76.87
51603;BME280;37954;51.980;5.850;2022-10-30T19:18:07;101568.75;;;17.39;77.05
51603;BME280;37954;51.980;5.850;2022-10-30T19:22:19;101564.88;;;17.35;77.26
51603;BME280;37954;51.980;5.850;2022-10-30T19:26:30;101559.88;;;17.27;77.26
51603;BME280;37954;51.980;5.850;2022-10-30T19:30:42;101563.31;;;17.23;77.63
51603;BME280;37954;51.980;5.850;2022-10-30T19:35:00;101558.88;;;17.17;77.67
51603;BME280;37954;51.980;5.850;2022-10-30T19:39:13;101567.00;;;17.17;77.80
51603;BME280;37954;51.980;5.850;2022-10-30T19:43:26;101572.63;;;17.10;77.60
51603;BME280;37954;51.980;5.850;2022-10-30T19:47:38;101577.88;;;17.00;77.69
51603;BME280;37954;51.980;5.850;2022-10-30T19:51:50;101584.78;;;16.91;77.64
51603;BME280;37954;51.980;5.850;2022-10-30T19:56:01;101589.19;;;16.80;77.85
51603;BME280;37954;51.980;5.850;2022-10-30T20:00:19;101596.09;;;16.71;77.89
51603;BME280;37954;51.980;5.850;2022-10-30T20:04:31;101601.66;;;16.64;78.06
51603;BME280;37954;51.980;5.850;2022-10-30T20:08:43;101605.91;;;16.60;78.27
51603;BME280;37954;51.980;5.850;2022-10-30T20:12:54;101621.59;;;16.58;78.58
51603;BME280;37954;51.980;5.850;2022-10-30T20:17:09;101627.72;;;16.54;78.61
51603;BME280;37954;51.980;5.850;2022-10-30T20:21:21;101643.06;;;16.48;78.90
51603;BME280;37954;51.980;5.850;2022-10-30T20:25:32;101644.53;;;16.39;79.11
51603;BME280;37954;51.980;5.850;2022-10-30T20:29:44;101653.25;;;16.29;79.33
51603;BME280;37954;51.980;5.850;2022-10-30T20:33:55;101644.44;;;16.22;79.81
51603;BME280;37954;51.980;5.850;2022-10-30T20:38:14;101645.16;;;16.18;80.11
51603;BME280;37954;51.980;5.850;2022-10-30T20:42:27;101650.34;;;16.19;80.11
51603;BME280;37954;51.980;5.850;2022-10-30T20:46:44;101645.97;;;16.18;80.53
51603;BME280;37954;51.980;5.850;2022-10-30T20:50:58;101647.03;;;16.17;80.35
51603;BME280;37954;51.980;5.850;2022-10-30T20:55:10;101641.50;;;16.12;80.58
51603;BME280;37954;51.980;5.850;2022-10-30T20:59:22;101659.09;;;16.10;80.49
51603;BME280;37954;51.980;5.850;2022-10-30T21:03:34;101667.91;;;16.05;80.37
51603;BME280;37954;51.980;5.850;2022-10-30T21:07:45;101657.06;;;16.05;80.29
51603;BME280;37954;51.980;5.850;2022-10-30T21:11:57;101665.69;;;16.02;80.13
51603;BME280;37954;51.980;5.850;2022-10-30T21:16:08;101675.47;;;16.03;80.33
51603;BME280;37954;51.980;5.850;2022-10-30T21:20:20;101679.34;;;15.95;80.00
51603;BME280;37954;51.980;5.850;2022-10-30T21:24:31;101675.69;;;15.90;79.56
51603;BME280;37954;51.980;5.850;2022-10-30T21:28:43;101672.50;;;15.81;79.74
51603;BME280;37954;51.980;5.850;2022-10-30T21:32:54;101677.22;;;15.74;79.61
51603;BME280;37954;51.980;5.850;2022-10-30T21:37:06;101683.34;;;15.70;79.82
51603;BME280;37954;51.980;5.850;2022-10-30T21:41:20;101689.00;;;15.68;79.73
51603;BME280;37954;51.980;5.850;2022-10-30T21:45:31;101692.63;;;15.62;79.83
51603;BME280;37954;51.980;5.850;2022-10-30T21:49:43;101676.38;;;15.62;79.87
51603;BME280;37954;51.980;5.850;2022-10-30T21:53:55;101687.94;;;15.57;79.72
51603;BME280;37954;51.980;5.850;2022-10-30T21:58:07;101679.03;;;15.50;79.81
51603;BME280;37954;51.980;5.850;2022-10-30T22:02:18;101679.72;;;15.46;79.85
51603;BME280;37954;51.980;5.850;2022-10-30T22:06:30;101690.69;;;15.39;79.72
51603;BME280;37954;51.980;5.850;2022-10-30T22:10:42;101677.84;;;15.35;80.05
51603;BME280;37954;51.980;5.850;2022-10-30T22:14:53;101688.75;;;15.28;80.18
51603;BME280;37954;51.980;5.850;2022-10-30T22:19:06;101691.56;;;15.21;80.03
51603;BME280;37954;51.980;5.850;2022-10-30T22:23:18;101696.84;;;15.16;80.05
51603;BME280;37954;51.980;5.850;2022-10-30T22:27:29;101700.69;;;15.09;80.43
51603;BME280;37954;51.980;5.850;2022-10-30T22:31:41;101709.75;;;15.03;80.45
51603;BME280;37954;51.980;5.850;2022-10-30T22:35:52;101707.78;;;14.91;80.29
51603;BME280;37954;51.980;5.850;2022-10-30T22:40:04;101711.41;;;14.85;80.48
51603;BME280;37954;51.980;5.850;2022-10-30T22:44:16;101719.00;;;14.77;80.67
51603;BME280;37954;51.980;5.850;2022-10-30T22:48:29;101724.13;;;14.67;80.85
51603;BME280;37954;51.980;5.850;2022-10-30T22:52:40;101728.56;;;14.61;80.83
51603;BME280;37954;51.980;5.850;2022-10-30T22:56:54;101732.53;;;14.58;80.98
51603;BME280;37954;51.980;5.850;2022-10-30T23:01:17;101725.34;;;14.52;81.10
51603;BME280;37954;51.980;5.850;2022-10-30T23:05:29;101727.88;;;14.47;81.30
51603;BME280;37954;51.980;5.850;2022-10-30T23:09:41;101723.75;;;14.45;81.21
51603;BME280;37954;51.980;5.850;2022-10-30T23:13:53;101728.09;;;14.46;81.53
51603;BME280;37954;51.980;5.850;2022-10-30T23:18:04;101734.19;;;14.41;81.48
51603;BME280;37954;51.980;5.850;2022-10-30T23:22:16;101732.59;;;14.34;81.71
51603;BME280;37954;51.980;5.850;2022-10-30T23:26:29;101744.22;;;14.34;81.90
51603;BME280;37954;51.980;5.850;2022-10-30T23:30:42;101730.59;;;14.22;81.65
51603;BME280;37954;51.980;5.850;2022-10-30T23:34:54;101732.94;;;14.19;81.80
51603;BME280;37954;51.980;5.850;2022-10-30T23:39:08;101744.03;;;14.11;81.72
51603;BME280;37954;51.980;5.850;2022-10-30T23:43:21;101736.44;;;14.01;81.85
51603;BME280;37954;51.980;5.850;2022-10-30T23:47:32;101735.00;;;13.99;81.82
51603;BME280;37954;51.980;5.850;2022-10-30T23:51:44;101741.50;;;13.91;81.89
51603;BME280;37954;51.980;5.850;2022-10-30T23:55:55;101731.41;;;13.80;82.31
